Time;durP1;ratioP1;P1;durP2;ratioP2;P2;SDS_P1;SDS_P2;PMS_P1;PMS_P2;Temp;Humidity;BMP_temperature;BMP_pressure;BME280_temperature;BME280_humidity;BME280_pressure;Samples;Min_cycle;Max_cycle;Signal;HPM_P1;HPM_P2
2022/10/16 00:00:44;;;;;;;33.88;27.05;;;22.60;99.90;;;;;;1837370;78;21597;-85
2022/10/16 00:03:14;;;;;;;38.75;26.00;;;22.60;99.90;;;;;;1817953;78;21165;-83
2022/10/16 00:05:45;;;;;;;26.80;20.45;;;22.60;99.90;;;;;;1807590;78;21223;-84
2022/10/16 00:08:16;;;;;;;30.17;20.20;;;22.60;99.90;;;;;;1807612;79;21148;-84
2022/10/16 00:10:46;;;;;;;22.55;18.60;;;22.60;99.90;;;;;;1789810;78;21147;-83
2022/10/16 00:13:20;;;;;;;23.40;17.90;;;22.70;99.90;;;;;;1794999;78;21066;-86
2022/10/16 00:15:49;;;;;;;21.95;16.95;;;22.70;99.90;;;;;;1818310;77;21255;-82
2022/10/16 00:18:20;;;;;;;19.73;15.13;;;22.70;99.60;;;;;;1825279;77;21200;-85
2022/10/16 00:20:53;;;;;;;20.62;15.78;;;22.70;99.10;;;;;;1817424;77;21566;-84
2022/10/16 00:23:24;;;;;;;22.67;16.37;;;22.70;99.00;;;;;;1808759;78;21685;-83
2022/10/16 00:25:57;;;;;;;21.68;18.10;;;22.70;98.70;;;;;;1802234;78;21179;-83
2022/10/16 00:28:29;;;;;;;25.23;19.25;;;22.70;98.10;;;;;;1836369;76;21211;-83
2022/10/16 00:31:01;;;;;;;24.67;17.57;;;22.70;97.80;;;;;;1832992;76;21504;-83
2022/10/16 00:33:32;;;;;;;18.40;14.13;;;22.70;96.80;;;;;;1801067;77;21190;-84
2022/10/16 00:36:04;;;;;;;22.13;15.95;;;22.70;96.50;;;;;;1805272;77;21193;-84
2022/10/16 00:38:35;;;;;;;21.17;15.43;;;22.70;96.30;;;;;;1800967;77;21144;-84
2022/10/16 00:41:07;;;;;;;22.85;16.20;;;22.80;96.30;;;;;;1851484;76;21152;-83
2022/10/16 00:43:39;;;;;;;18.87;13.60;;;22.80;96.50;;;;;;1834359;76;21197;-84
2022/10/16 00:46:12;;;;;;;17.17;12.50;;;22.80;96.40;;;;;;1829539;76;21194;-84
2022/10/16 00:48:44;;;;;;;17.05;12.05;;;22.80;96.00;;;;;;1833488;76;21231;-85
2022/10/16 00:51:16;;;;;;;20.37;11.80;;;22.90;95.40;;;;;;1836908;76;21172;-84
2022/10/16 00:53:47;;;;;;;17.42;12.40;;;22.90;95.00;;;;;;1840399;76;21402;-85
2022/10/16 00:56:19;;;;;;;18.25;12.78;;;22.90;94.90;;;;;;1834538;76;21136;-82
2022/10/16 00:58:49;;;;;;;18.82;13.32;;;22.90;94.90;;;;;;1837242;77;21242;-83
2022/10/16 01:01:20;;;;;;;18.02;12.60;;;22.90;95.10;;;;;;1834851;76;21089;-83
2022/10/16 01:03:51;;;;;;;25.77;13.93;;;23.00;95.20;;;;;;1832507;76;21140;-83
2022/10/16 01:06:24;;;;;;;16.23;11.30;;;23.00;95.00;;;;;;1810569;77;21118;-84
2022/10/16 01:08:57;;;;;;;18.02;12.10;;;23.10;94.70;;;;;;1828769;77;21190;-84
2022/10/16 01:11:30;;;;;;;16.52;12.28;;;23.10;94.70;;;;;;1794903;79;21105;-84
2022/10/16 01:14:03;;;;;;;17.12;12.63;;;23.10;94.30;;;;;;1843273;76;21884;-85
2022/10/16 01:16:36;;;;;;;16.25;12.07;;;23.10;94.30;;;;;;1841683;76;21214;-83
2022/10/16 01:19:09;;;;;;;15.25;11.83;;;23.10;94.20;;;;;;1843062;76;21205;-83
2022/10/16 01:21:43;;;;;;;17.15;11.97;;;23.20;94.20;;;;;;1838699;76;21105;-84
2022/10/16 01:24:16;;;;;;;15.78;11.83;;;23.30;93.70;;;;;;1882984;75;21175;-82
2022/10/16 01:26:49;;;;;;;16.20;11.57;;;23.30;93.90;;;;;;1875280;75;21105;-84
2022/10/16 01:29:21;;;;;;;14.60;11.22;;;23.30;93.70;;;;;;1864270;76;21827;-83
2022/10/16 01:31:55;;;;;;;17.80;12.30;;;23.30;93.60;;;;;;1853678;76;21147;-83
2022/10/16 01:34:28;;;;;;;14.75;11.38;;;23.40;93.70;;;;;;1881511;74;21179;-84
2022/10/16 01:37:01;;;;;;;15.65;12.07;;;23.40;93.50;;;;;;1843079;76;21215;-85
2022/10/16 01:39:34;;;;;;;16.93;12.40;;;23.40;93.50;;;;;;1881536;74;21135;-84
2022/10/16 01:42:08;;;;;;;15.35;11.60;;;23.50;93.30;;;;;;1847801;76;21132;-84
2022/10/16 01:44:42;;;;;;;17.45;11.78;;;23.50;93.10;;;;;;1882374;75;21598;-83
2022/10/16 01:47:20;;;;;;;20.55;12.00;;;23.50;93.10;;;;;;1876751;75;21139;-83
2022/10/16 01:49:59;;;;;;;17.32;11.78;;;23.50;93.00;;;;;;1845312;76;21158;-82
2022/10/16 01:52:30;;;;;;;15.43;10.58;;;23.50;93.10;;;;;;1897057;74;21123;-85
2022/10/16 01:55:03;;;;;;;14.78;10.90;;;23.50;92.90;;;;;;1852434;77;21160;-83
2022/10/16 01:57:37;;;;;;;14.07;11.03;;;23.50;92.90;;;;;;1889087;74;21139;-72
2022/10/16 02:00:12;;;;;;;15.85;11.08;;;23.60;92.80;;;;;;1850842;76;21163;-73
2022/10/16 02:02:45;;;;;;;17.27;12.07;;;23.60;92.70;;;;;;1891162;74;21141;-73
2022/10/16 02:05:18;;;;;;;17.07;11.93;;;23.60;92.60;;;;;;1874962;74;21779;-74
2022/10/16 02:07:50;;;;;;;14.90;11.08;;;23.70;92.50;;;;;;1853474;76;21090;-74
2022/10/16 02:10:21;;;;;;;17.73;11.10;;;23.70;92.60;;;;;;1913786;73;21240;-74
2022/10/16 02:12:54;;;;;;;18.70;12.47;;;23.70;92.50;;;;;;1914333;73;21508;-73
2022/10/16 02:15:25;;;;;;;14.58;10.95;;;23.70;92.80;;;;;;1913628;73;21103;-73
2022/10/16 02:17:56;;;;;;;15.10;10.93;;;23.70;92.20;;;;;;1909595;73;21142;-74
2022/10/16 02:20:29;;;;;;;15.20;10.72;;;23.60;92.00;;;;;;1912374;74;21182;-73
2022/10/16 02:23:01;;;;;;;14.83;11.22;;;23.60;92.30;;;;;;1907475;74;21186;-74
2022/10/16 02:25:37;;;;;;;15.78;12.00;;;23.50;92.40;;;;;;1891416;75;21044;-74
2022/10/16 02:28:12;;;;;;;16.37;11.83;;;23.60;92.60;;;;;;1894252;74;21605;-73
2022/10/16 02:30:45;;;;;;;16.52;12.03;;;23.60;92.70;;;;;;1890851;74;21278;-74
2022/10/16 02:33:19;;;;;;;18.07;10.98;;;23.60;92.60;;;;;;1888419;74;21226;-73
2022/10/16 02:35:51;;;;;;;18.07;11.45;;;23.70;92.80;;;;;;1894915;74;21213;-73
2022/10/16 02:38:23;;;;;;;14.90;10.88;;;23.70;92.80;;;;;;1895186;74;21654;-74
2022/10/16 02:40:55;;;;;;;13.80;11.18;;;23.80;92.70;;;;;;1853559;75;21168;-74
2022/10/16 02:43:29;;;;;;;15.95;11.55;;;23.80;92.40;;;;;;1859803;75;21160;-73
2022/10/16 02:46:00;;;;;;;15.43;11.85;;;23.80;92.30;;;;;;1901054;74;21244;-74
2022/10/16 02:48:31;;;;;;;15.30;11.03;;;23.80;92.50;;;;;;1898374;74;21081;-74
2022/10/16 02:51:01;;;;;;;15.35;11.05;;;23.80;92.00;;;;;;1892748;74;21699;-76
2022/10/16 02:53:32;;;;;;;16.25;11.43;;;23.80;92.20;;;;;;1895951;74;22389;-74
2022/10/16 02:56:03;;;;;;;17.02;11.95;;;23.80;92.20;;;;;;1890918;74;21135;-73
2022/10/16 02:58:35;;;;;;;15.98;11.08;;;23.80;92.20;;;;;;1900208;74;21085;-73
2022/10/16 03:01:06;;;;;;;15.85;11.73;;;23.80;92.00;;;;;;1866401;75;21157;-73
2022/10/16 03:03:37;;;;;;;16.75;11.40;;;23.90;92.00;;;;;;1902053;74;21153;-74
2022/10/16 03:06:07;;;;;;;15.43;11.63;;;23.90;91.70;;;;;;1901515;75;21076;-74
2022/10/16 03:08:39;;;;;;;15.35;10.85;;;23.90;91.90;;;;;;1891156;75;21722;-75
2022/10/16 03:11:10;;;;;;;16.20;11.03;;;23.90;91.30;;;;;;1888957;75;21123;-75
2022/10/16 03:13:40;;;;;;;14.10;11.28;;;23.90;91.60;;;;;;1883375;75;21694;-75
2022/10/16 03:16:11;;;;;;;14.53;10.95;;;23.90;91.60;;;;;;1900479;74;21155;-74
2022/10/16 03:18:42;;;;;;;15.72;10.20;;;23.90;91.80;;;;;;1906469;73;21668;-73
2022/10/16 03:21:13;;;;;;;17.82;11.05;;;24.00;91.70;;;;;;1909132;74;21113;-74
2022/10/16 03:23:43;;;;;;;18.40;12.28;;;24.00;91.60;;;;;;1904197;74;21170;-75
2022/10/16 03:26:14;;;;;;;16.73;11.25;;;24.00;91.50;;;;;;1873554;75;21096;-75
2022/10/16 03:28:45;;;;;;;13.78;10.93;;;24.10;91.40;;;;;;1822933;79;21628;-74
2022/10/16 03:31:18;;;;;;;14.73;10.63;;;24.10;91.40;;;;;;1800746;79;21169;-75
2022/10/16 03:33:49;;;;;;;14.00;10.75;;;24.20;91.40;;;;;;1842155;77;21087;-73
2022/10/16 03:36:20;;;;;;;15.72;10.98;;;24.20;91.00;;;;;;1841073;77;21623;-74
2022/10/16 03:38:51;;;;;;;16.67;11.78;;;24.30;91.00;;;;;;1842787;77;21128;-74
2022/10/16 03:41:22;;;;;;;14.33;10.70;;;24.30;90.70;;;;;;1850146;76;21164;-74
2022/10/16 03:43:53;;;;;;;20.75;11.93;;;24.40;90.70;;;;;;1847651;75;21188;-74
2022/10/16 03:46:23;;;;;;;15.98;11.15;;;24.50;90.60;;;;;;1823070;79;21154;-74
2022/10/16 03:48:55;;;;;;;19.30;11.20;;;24.50;90.50;;;;;;1839091;76;21133;-75
2022/10/16 03:51:26;;;;;;;15.28;11.55;;;24.60;90.20;;;;;;1840314;77;21091;-73
2022/10/16 03:53:59;;;;;;;18.37;11.28;;;24.60;90.70;;;;;;1835845;77;21159;-74
2022/10/16 03:56:30;;;;;;;19.75;12.55;;;24.70;90.40;;;;;;1831734;77;21578;-75
2022/10/16 03:59:03;;;;;;;18.25;12.88;;;24.70;90.60;;;;;;1851362;75;21164;-73
2022/10/16 04:01:33;;;;;;;18.40;12.23;;;24.70;90.00;;;;;;1821015;77;21095;-74
2022/10/16 04:04:04;;;;;;;23.83;12.18;;;24.80;90.50;;;;;;1844843;77;21227;-74
2022/10/16 04:06:36;;;;;;;17.12;11.95;;;24.80;90.50;;;;;;1894553;75;21693;-74
2022/10/16 04:09:07;;;;;;;16.90;11.70;;;24.80;90.40;;;;;;1901236;74;21614;-73
2022/10/16 04:11:38;;;;;;;18.67;12.60;;;24.90;90.40;;;;;;1889940;74;21127;-74
2022/10/16 04:14:10;;;;;;;16.00;11.60;;;24.90;90.30;;;;;;1886317;75;21115;-74
2022/10/16 04:16:43;;;;;;;18.02;12.18;;;24.90;90.40;;;;;;1891366;73;21112;-74
2022/10/16 04:19:16;;;;;;;18.17;11.97;;;24.90;90.40;;;;;;1900228;73;21592;-74
2022/10/16 04:21:46;;;;;;;17.85;12.10;;;24.90;88.20;;;;;;1888499;73;21127;-73
2022/10/16 04:24:20;;;;;;;21.68;12.53;;;24.90;89.10;;;;;;1883885;75;21208;-74
2022/10/16 04:26:51;;;;;;;18.20;11.68;;;24.90;88.80;;;;;;1921192;73;21566;-74
2022/10/16 04:29:23;;;;;;;16.70;11.00;;;24.90;88.50;;;;;;1893356;75;21535;-73
2022/10/16 04:31:54;;;;;;;16.25;11.70;;;24.90;88.70;;;;;;1898271;74;21597;-74
2022/10/16 04:34:25;;;;;;;17.40;11.85;;;24.90;89.20;;;;;;1902259;75;21213;-73
2022/10/16 04:36:55;;;;;;;19.62;12.78;;;25.00;89.60;;;;;;1885232;73;21114;-74
2022/10/16 04:39:27;;;;;;;16.75;11.97;;;24.90;89.60;;;;;;1890368;74;21626;-73
2022/10/16 04:41:58;;;;;;;16.87;11.95;;;25.00;89.20;;;;;;1905066;74;21147;-74
2022/10/16 04:44:28;;;;;;;17.92;12.10;;;25.00;88.90;;;;;;1875294;76;21197;-73
2022/10/16 04:46:59;;;;;;;18.15;11.95;;;25.00;89.00;;;;;;1906302;74;21126;-75
2022/10/16 04:49:30;;;;;;;17.48;11.53;;;24.90;87.00;;;;;;1908561;74;21123;-73
2022/10/16 04:52:01;;;;;;;19.77;12.10;;;24.90;87.60;;;;;;1904725;75;21598;-73
2022/10/16 04:54:31;;;;;;;21.10;12.03;;;24.90;87.00;;;;;;1859965;76;21101;-74
2022/10/16 04:57:04;;;;;;;17.42;12.73;;;24.90;89.40;;;;;;1887554;73;21536;-73
2022/10/16 04:59:35;;;;;;;18.75;12.50;;;25.00;88.80;;;;;;1907386;75;21696;-73
2022/10/16 05:02:06;;;;;;;19.27;11.55;;;25.00;89.30;;;;;;1914267;74;21226;-72
2022/10/16 05:04:37;;;;;;;16.75;11.50;;;25.00;88.00;;;;;;1917497;74;21072;-73
2022/10/16 05:07:08;;;;;;;19.37;11.43;;;25.00;88.70;;;;;;1879309;75;21259;-73
2022/10/16 05:09:39;;;;;;;16.05;11.57;;;25.10;88.30;;;;;;1894678;75;21088;-74
2022/10/16 05:12:10;;;;;;;18.48;12.23;;;25.10;87.50;;;;;;1886713;75;21088;-74
2022/10/16 05:14:41;;;;;;;17.87;11.65;;;25.20;87.60;;;;;;1834421;77;21630;-74
2022/10/16 05:17:14;;;;;;;17.23;11.53;;;25.30;87.80;;;;;;1888453;74;21661;-74
2022/10/16 05:19:45;;;;;;;19.20;11.15;;;25.40;86.40;;;;;;1894424;73;21201;-74
2022/10/16 05:22:15;;;;;;;16.73;11.93;;;25.50;85.70;;;;;;1898277;74;21583;-73
2022/10/16 05:24:46;;;;;;;17.45;11.08;;;25.50;86.60;;;;;;1896628;75;21142;-73
2022/10/16 05:27:20;;;;;;;17.52;10.95;;;25.60;84.90;;;;;;1913967;73;21523;-74
2022/10/16 05:29:50;;;;;;;17.73;11.33;;;25.70;83.60;;;;;;1912397;75;21621;-73
2022/10/16 05:32:21;;;;;;;15.80;10.90;;;25.70;84.80;;;;;;1907376;73;21154;-73
2022/10/16 05:34:52;;;;;;;16.55;10.35;;;25.70;83.20;;;;;;1910300;75;21717;-74
2022/10/16 05:37:23;;;;;;;17.70;10.95;;;25.70;83.20;;;;;;1882638;75;21261;-73
2022/10/16 05:39:54;;;;;;;18.27;10.58;;;25.70;82.90;;;;;;1888346;75;21048;-73
2022/10/16 05:42:25;;;;;;;14.43;10.40;;;25.70;82.70;;;;;;1886476;75;21100;-73
2022/10/16 05:44:55;;;;;;;17.35;10.43;;;25.70;82.70;;;;;;1886161;75;21131;-74
2022/10/16 05:47:28;;;;;;;15.25;10.78;;;25.70;82.50;;;;;;1890049;75;21169;-74
2022/10/16 05:49:58;;;;;;;18.07;10.90;;;25.70;83.00;;;;;;1849263;76;21177;-73
2022/10/16 05:52:29;;;;;;;14.58;10.72;;;25.70;81.90;;;;;;1817840;78;21203;-74
2022/10/16 05:55:00;;;;;;;18.80;11.12;;;25.70;82.50;;;;;;1837608;78;21101;-74
2022/10/16 05:57:31;;;;;;;14.68;10.75;;;25.70;81.50;;;;;;1835763;78;21180;-74
2022/10/16 06:00:01;;;;;;;16.45;11.90;;;25.70;82.50;;;;;;1893686;75;21210;-75
2022/10/16 06:02:34;;;;;;;15.68;11.12;;;25.70;83.00;;;;;;1895840;75;21139;-73
2022/10/16 06:05:06;;;;;;;14.65;10.38;;;25.70;82.50;;;;;;1879665;75;21586;-74
2022/10/16 06:07:37;;;;;;;16.73;11.78;;;25.60;83.50;;;;;;1889964;74;21132;-73
2022/10/16 06:10:10;;;;;;;17.55;11.70;;;25.70;83.20;;;;;;1900114;75;21246;-75
2022/10/16 06:12:41;;;;;;;14.98;10.98;;;25.60;84.10;;;;;;1900032;75;21154;-74
2022/10/16 06:15:11;;;;;;;17.57;10.85;;;25.60;84.10;;;;;;1899027;75;21186;-74
2022/10/16 06:17:42;;;;;;;20.35;11.88;;;25.60;84.40;;;;;;1879706;75;21687;-74
2022/10/16 06:20:13;;;;;;;19.07;11.12;;;25.60;84.70;;;;;;1848339;77;21120;-73
2022/10/16 06:22:43;;;;;;;19.37;11.85;;;25.70;84.10;;;;;;1889153;75;21103;-73
2022/10/16 06:25:15;;;;;;;16.67;11.57;;;25.70;84.10;;;;;;1882640;75;22106;-72
2022/10/16 06:27:46;;;;;;;21.30;11.68;;;25.70;84.50;;;;;;1863253;75;21143;-72
2022/10/16 06:30:17;;;;;;;19.02;11.88;;;25.80;84.60;;;;;;1867724;76;21150;-73
2022/10/16 06:32:47;;;;;;;20.27;11.95;;;25.80;85.00;;;;;;1868792;75;21077;-73
2022/10/16 06:35:18;;;;;;;20.20;11.53;;;25.80;83.80;;;;;;1862887;76;21064;-72
2022/10/16 06:37:48;;;;;;;16.35;11.00;;;25.80;83.90;;;;;;1928841;73;21159;-72
2022/10/16 06:40:19;;;;;;;16.45;11.97;;;25.80;84.80;;;;;;1917241;73;21111;-74
2022/10/16 06:42:51;;;;;;;16.30;11.12;;;25.90;84.80;;;;;;1920810;73;21099;-74
2022/10/16 06:45:22;;;;;;;17.82;10.58;;;25.90;83.60;;;;;;1895269;75;21232;-74
2022/10/16 06:47:53;;;;;;;14.07;11.30;;;25.90;83.90;;;;;;1918307;73;21245;-73
2022/10/16 06:50:23;;;;;;;16.60;10.90;;;25.90;83.40;;;;;;1916689;75;21079;-73
2022/10/16 06:52:54;;;;;;;15.45;11.30;;;25.90;83.40;;;;;;1917920;73;21154;-73
2022/10/16 06:55:25;;;;;;;17.45;10.85;;;25.90;83.10;;;;;;1908179;73;21162;-73
2022/10/16 06:57:55;;;;;;;16.02;11.45;;;25.90;83.10;;;;;;1896851;73;21538;-73
2022/10/16 07:00:26;;;;;;;18.27;11.00;;;25.90;83.00;;;;;;1887224;75;21586;-73
2022/10/16 07:02:57;;;;;;;17.52;11.33;;;25.90;83.00;;;;;;1927639;73;21103;-71
2022/10/16 07:05:30;;;;;;;14.33;10.18;;;26.00;83.90;;;;;;1933046;73;21147;-74
2022/10/16 07:08:05;;;;;;;14.68;10.90;;;26.00;82.40;;;;;;1917354;73;21158;-74
2022/10/16 07:10:36;;;;;;;14.35;9.70;;;26.00;82.50;;;;;;1918483;75;21172;-73
2022/10/16 07:13:12;;;;;;;13.50;10.25;;;26.00;82.90;;;;;;1920263;73;21142;-73
2022/10/16 07:15:42;;;;;;;14.00;9.68;;;26.00;82.60;;;;;;1905973;74;21124;-73
2022/10/16 07:18:14;;;;;;;13.30;10.32;;;26.00;82.70;;;;;;1861629;75;21168;-74
2022/10/16 07:20:48;;;;;;;17.37;9.90;;;26.00;82.90;;;;;;1843612;76;21586;-73
2022/10/16 07:23:19;;;;;;;18.73;10.18;;;26.00;83.60;;;;;;1912574;73;21634;-73
2022/10/16 07:25:52;;;;;;;17.00;10.20;;;26.00;83.10;;;;;;1888407;76;21067;-73
2022/10/16 07:28:30;;;;;;;16.07;10.65;;;26.00;84.20;;;;;;1894072;73;22156;-84
2022/10/16 07:31:02;;;;;;;12.05;10.08;;;26.00;83.90;;;;;;1867541;75;21228;-83
2022/10/16 07:33:34;;;;;;;12.73;9.28;;;26.00;84.40;;;;;;1894256;73;21152;-84
2022/10/16 07:36:05;;;;;;;14.75;10.18;;;26.10;83.60;;;;;;1872459;75;21197;-84
2022/10/16 07:38:38;;;;;;;17.50;9.95;;;26.10;82.60;;;;;;1894213;74;21200;-84
2022/10/16 07:41:10;;;;;;;16.70;10.08;;;26.10;82.40;;;;;;1899138;74;21037;-84
2022/10/16 07:43:46;;;;;;;14.90;10.40;;;26.00;83.10;;;;;;1887957;73;21084;-85
2022/10/16 07:46:28;;;;;;;15.35;10.38;;;26.00;83.10;;;;;;1897877;74;21155;-85
2022/10/16 07:48:56;;;;;;;19.30;10.58;;;26.10;82.70;;;;;;1906140;74;21176;-84
2022/10/16 07:51:27;;;;;;;17.23;10.90;;;26.00;82.30;;;;;;1897469;73;21260;-84
2022/10/16 07:54:02;;;;;;;14.98;9.68;;;26.00;82.70;;;;;;1895551;74;21543;-84
2022/10/16 07:56:33;;;;;;;17.12;10.53;;;26.00;81.90;;;;;;1891447;73;21136;-84
2022/10/16 07:59:05;;;;;;;15.98;10.18;;;26.00;81.80;;;;;;1895278;75;21097;-84
2022/10/16 08:01:36;;;;;;;16.73;10.30;;;26.00;82.60;;;;;;1882981;73;21147;-83
2022/10/16 08:04:06;;;;;;;17.17;10.65;;;25.90;82.70;;;;;;1822214;79;21131;-84
2022/10/16 08:06:44;;;;;;;17.60;10.05;;;25.90;82.10;;;;;;1824531;77;21207;-84
2022/10/16 08:09:11;;;;;;;14.50;10.32;;;25.90;81.90;;;;;;1851403;77;21533;-84
2022/10/16 08:11:42;;;;;;;13.83;11.08;;;25.90;82.40;;;;;;1846097;77;21652;-84
2022/10/16 08:14:13;;;;;;;18.02;11.50;;;26.00;83.30;;;;;;1838523;77;21156;-83
2022/10/16 08:16:43;;;;;;;17.12;10.90;;;25.90;82.70;;;;;;1845592;76;21268;-86
2022/10/16 08:19:15;;;;;;;14.65;11.28;;;26.00;84.00;;;;;;1854206;76;21099;-84
2022/10/16 08:21:48;;;;;;;18.95;12.07;;;26.00;83.60;;;;;;1845247;76;21178;-84
2022/10/16 08:24:19;;;;;;;17.37;11.15;;;25.90;83.60;;;;;;1854223;77;21591;-83
2022/10/16 08:26:51;;;;;;;16.37;11.03;;;25.90;83.30;;;;;;1853584;77;21151;-84
2022/10/16 08:29:24;;;;;;;16.30;11.05;;;26.00;84.10;;;;;;1867895;75;22001;-82
2022/10/16 08:31:55;;;;;;;16.37;12.05;;;25.90;84.30;;;;;;1874244;75;21580;-83
2022/10/16 08:34:26;;;;;;;17.60;12.37;;;25.90;85.00;;;;;;1855856;77;21141;-86
2022/10/16 08:36:57;;;;;;;20.90;12.13;;;25.90;85.40;;;;;;1862329;77;21725;-83
2022/10/16 08:39:28;;;;;;;25.23;12.20;;;25.90;85.10;;;;;;1859886;76;21163;-83
2022/10/16 08:42:01;;;;;;;21.57;12.40;;;25.90;84.90;;;;;;1825999;78;21083;-83
2022/10/16 08:44:35;;;;;;;16.93;12.82;;;25.90;85.10;;;;;;1837379;77;21076;-84
2022/10/16 08:47:09;;;;;;;18.27;12.43;;;25.90;84.70;;;;;;1821093;77;21187;-84
2022/10/16 08:49:42;;;;;;;15.48;12.13;;;25.90;85.20;;;;;;1864761;76;21238;-84
2022/10/16 08:52:14;;;;;;;16.62;12.60;;;25.90;85.30;;;;;;1840117;78;21141;-84
2022/10/16 08:54:50;;;;;;;22.80;12.78;;;25.90;85.10;;;;;;1812983;78;21107;-84
2022/10/16 08:57:23;;;;;;;21.12;13.03;;;25.90;85.40;;;;;;1837615;77;21508;-81
2022/10/16 08:59:55;;;;;;;22.30;13.28;;;25.90;85.50;;;;;;1870744;77;21640;-81
2022/10/16 09:02:31;;;;;;;18.95;12.37;;;25.90;85.40;;;;;;1870845;77;21623;-80
2022/10/16 09:05:05;;;;;;;17.98;12.53;;;25.90;86.00;;;;;;1867213;77;21612;-80
2022/10/16 09:07:38;;;;;;;19.35;12.25;;;25.90;85.30;;;;;;1834166;76;21939;-80
2022/10/16 09:10:11;;;;;;;18.07;13.35;;;25.90;85.70;;;;;;1855374;76;21200;-81
2022/10/16 09:12:45;;;;;;;17.45;12.70;;;25.90;85.90;;;;;;1853494;76;21642;-79
2022/10/16 09:15:17;;;;;;;20.25;12.78;;;25.90;86.30;;;;;;1852463;77;21238;-80
2022/10/16 09:17:51;;;;;;;19.70;13.05;;;25.90;86.40;;;;;;1830389;77;21188;-81
2022/10/16 09:20:23;;;;;;;18.50;13.03;;;25.90;86.70;;;;;;1849827;77;21249;-81
2022/10/16 09:22:58;;;;;;;17.20;13.22;;;25.90;86.50;;;;;;1847772;77;21531;-81
2022/10/16 09:25:29;;;;;;;19.62;13.43;;;25.90;86.90;;;;;;1835174;75;21217;-81
2022/10/16 09:28:00;;;;;;;17.00;13.28;;;25.90;87.20;;;;;;1825738;77;21623;-80
2022/10/16 09:30:31;;;;;;;17.82;13.28;;;25.90;87.30;;;;;;1828172;77;21637;-78
2022/10/16 09:33:06;;;;;;;20.60;13.32;;;25.80;87.40;;;;;;1849419;77;21103;-79
2022/10/16 09:35:39;;;;;;;16.82;12.10;;;25.80;88.30;;;;;;1846603;77;21698;-79
2022/10/16 09:38:13;;;;;;;19.73;13.32;;;25.80;87.90;;;;;;1880029;76;21112;-82
2022/10/16 09:40:44;;;;;;;21.30;13.62;;;25.80;88.30;;;;;;1911716;74;21531;-81
2022/10/16 09:43:18;;;;;;;17.80;12.82;;;25.80;88.30;;;;;;1847718;75;21208;-80
2022/10/16 09:45:55;;;;;;;19.17;13.38;;;25.80;87.80;;;;;;1874936;75;21786;-80
2022/10/16 09:48:29;;;;;;;18.37;12.43;;;25.80;87.90;;;;;;1908432;73;21150;-79
2022/10/16 09:51:03;;;;;;;17.87;12.65;;;25.70;88.10;;;;;;1922749;73;21591;-81
2022/10/16 09:53:36;;;;;;;;;;;25.70;87.70;;;;;;1916679;74;21104;-80
2022/10/16 09:56:08;;;;;;;16.23;12.65;;;25.60;87.90;;;;;;1870851;75;20210;-81
2022/10/16 09:58:44;;;;;;;21.07;13.10;;;25.60;88.00;;;;;;1928139;73;21118;-81
2022/10/16 10:01:18;;;;;;;20.30;13.00;;;25.60;88.40;;;;;;1907192;73;21197;-80
2022/10/16 10:03:49;;;;;;;15.93;12.47;;;25.60;88.50;;;;;;1911350;74;21625;-84
2022/10/16 10:06:28;;;;;;;20.52;12.30;;;25.50;88.80;;;;;;1922121;73;21516;-81
2022/10/16 10:08:58;;;;;;;16.77;12.03;;;25.50;88.70;;;;;;1890811;74;21582;-82
2022/10/16 10:11:31;;;;;;;18.20;11.90;;;25.50;88.70;;;;;;1891074;75;21059;-83
2022/10/16 10:14:05;;;;;;;16.25;11.93;;;25.50;89.10;;;;;;1906849;74;21559;-82
2022/10/16 10:16:36;;;;;;;21.82;12.47;;;25.50;90.10;;;;;;1915011;74;21119;-81
2022/10/16 10:19:07;;;;;;;18.50;12.45;;;25.40;89.50;;;;;;1850123;76;21221;-83
2022/10/16 10:21:40;;;;;;;18.00;13.00;;;25.40;89.40;;;;;;1848329;76;21641;-80
2022/10/16 10:24:13;;;;;;;20.45;13.40;;;25.40;89.20;;;;;;1839628;76;21164;-82
2022/10/16 10:26:46;;;;;;;18.65;13.40;;;25.40;89.50;;;;;;1842975;77;21625;-83
2022/10/16 10:29:19;;;;;;;24.37;13.88;;;25.40;89.70;;;;;;1875797;75;21085;-82
2022/10/16 10:31:52;;;;;;;20.90;13.38;;;25.50;90.00;;;;;;1891614;74;21148;-81
2022/10/16 10:34:26;;;;;;;17.92;12.55;;;25.40;90.00;;;;;;1888154;75;21564;-79
2022/10/16 10:36:59;;;;;;;19.80;12.98;;;25.40;90.00;;;;;;1893039;74;21155;-81
2022/10/16 10:39:33;;;;;;;19.95;13.70;;;25.50;90.10;;;;;;1895674;75;21584;-79
2022/10/16 10:42:06;;;;;;;24.30;15.13;;;25.40;90.10;;;;;;1884217;75;21181;-80
2022/10/16 10:44:40;;;;;;;19.23;13.78;;;25.40;90.30;;;;;;1877125;74;21622;-80
2022/10/16 10:47:15;;;;;;;20.45;13.78;;;25.40;90.50;;;;;;1876979;75;21170;-81
2022/10/16 10:49:47;;;;;;;17.67;14.10;;;25.40;90.70;;;;;;1874808;75;21573;-82
2022/10/16 10:52:20;;;;;;;19.57;13.62;;;25.30;91.00;;;;;;1888748;75;21610;-80
2022/10/16 10:54:53;;;;;;;23.40;13.72;;;25.30;91.00;;;;;;1896797;75;21139;-81
2022/10/16 10:57:26;;;;;;;19.82;13.32;;;25.30;91.00;;;;;;1874085;75;21132;-80
2022/10/16 10:59:59;;;;;;;18.73;13.38;;;25.30;91.30;;;;;;1872535;75;21045;-79
2022/10/16 11:02:33;;;;;;;16.70;13.38;;;25.20;91.30;;;;;;1878639;74;21588;-85
2022/10/16 11:05:08;;;;;;;21.97;13.93;;;25.20;91.40;;;;;;1879321;74;21130;-84
2022/10/16 11:07:41;;;;;;;21.80;14.30;;;25.20;91.60;;;;;;1897211;75;21139;-86
2022/10/16 11:10:14;;;;;;;20.08;14.30;;;25.20;91.90;;;;;;1891196;75;21156;-85
2022/10/16 11:12:47;;;;;;;18.55;14.58;;;25.10;91.90;;;;;;1900296;74;21205;-85
2022/10/16 11:15:23;;;;;;;21.37;15.20;;;25.10;92.00;;;;;;1891785;74;21154;-85
2022/10/16 11:18:01;;;;;;;22.42;15.05;;;25.10;92.00;;;;;;1897707;74;21096;-85
2022/10/16 11:20:39;;;;;;;22.60;14.65;;;25.10;92.40;;;;;;1895875;74;21163;-84
2022/10/16 11:23:19;;;;;;;23.02;16.37;;;25.00;92.20;;;;;;1888931;74;21151;-85
2022/10/16 11:25:51;;;;;;;22.48;16.27;;;25.00;92.50;;;;;;1890786;75;21118;-85
2022/10/16 11:28:24;;;;;;;21.77;15.55;;;25.00;92.70;;;;;;1902437;74;21642;-84
2022/10/16 11:31:03;;;;;;;24.82;16.00;;;25.00;93.10;;;;;;1903159;74;21140;-85
2022/10/16 11:33:37;;;;;;;22.27;15.95;;;25.00;92.70;;;;;;1881590;76;21148;-85
2022/10/16 11:36:17;;;;;;;19.25;15.53;;;25.00;93.00;;;;;;1863825;76;21238;-85
2022/10/16 11:38:45;;;;;;;;;;;24.90;92.90;;;;;;1858265;74;21136;-86
2022/10/16 11:41:17;;;;;;;19.52;13.62;;;25.00;92.70;;;;;;1872561;76;20391;-85
2022/10/16 11:43:51;;;;;;;23.35;14.53;;;24.90;93.00;;;;;;1859077;76;21142;-86
2022/10/16 11:46:25;;;;;;;25.23;14.78;;;24.90;93.10;;;;;;1860137;76;22294;-85
2022/10/16 11:48:59;;;;;;;20.62;13.83;;;24.90;93.30;;;;;;1854535;76;21096;-85
2022/10/16 11:51:32;;;;;;;21.68;14.23;;;24.90;93.10;;;;;;1857886;76;21864;-85
2022/10/16 11:54:04;;;;;;;16.00;14.00;;;24.90;93.10;;;;;;1867190;76;21211;-85
2022/10/16 11:56:40;;;;;;;19.17;14.68;;;24.90;93.30;;;;;;1875328;75;21124;-85
2022/10/16 11:59:17;;;;;;;18.30;14.35;;;24.90;93.20;;;;;;1840155;76;21160;-86
2022/10/16 12:01:51;;;;;;;18.55;14.00;;;24.90;93.40;;;;;;1873455;75;21152;-85
2022/10/16 12:04:24;;;;;;;19.15;14.28;;;24.80;93.40;;;;;;1865001;76;21086;-84
2022/10/16 12:07:01;;;;;;;20.40;14.55;;;24.90;93.70;;;;;;1854430;76;21597;-84
2022/10/16 12:09:35;;;;;;;20.80;14.70;;;24.90;93.60;;;;;;1875639;76;21191;-85
2022/10/16 12:12:07;;;;;;;19.48;13.70;;;24.90;93.50;;;;;;1876411;75;21206;-86
2022/10/16 12:14:40;;;;;;;22.73;15.32;;;24.90;93.40;;;;;;1848030;76;21172;-86
2022/10/16 12:17:15;;;;;;;17.55;13.45;;;24.90;93.40;;;;;;1871165;76;21658;-87
2022/10/16 12:19:48;;;;;;;21.70;15.28;;;24.90;93.40;;;;;;1865555;76;21070;-85
2022/10/16 12:22:20;;;;;;;21.15;14.60;;;24.90;93.60;;;;;;1865051;75;21133;-85
2022/10/16 12:24:52;;;;;;;24.43;15.88;;;24.90;93.50;;;;;;1862370;76;21202;-84
2022/10/16 12:27:25;;;;;;;22.75;14.68;;;24.90;93.70;;;;;;1877345;76;21159;-83
2022/10/16 12:29:59;;;;;;;21.30;15.83;;;24.90;93.70;;;;;;1862438;76;21113;-85
2022/10/16 12:32:32;;;;;;;21.62;16.02;;;24.90;93.90;;;;;;1865255;75;21169;-84
2022/10/16 12:35:06;;;;;;;22.52;15.13;;;24.90;94.00;;;;;;1810442;76;21302;-84
2022/10/16 12:37:39;;;;;;;21.05;16.00;;;24.90;93.80;;;;;;1823245;77;21169;-84
2022/10/16 12:40:12;;;;;;;19.42;14.60;;;24.90;94.10;;;;;;1822614;78;21046;-84
2022/10/16 12:42:45;;;;;;;18.90;14.60;;;24.90;94.20;;;;;;1816183;78;21670;-84
2022/10/16 12:45:18;;;;;;;20.37;15.23;;;24.90;94.00;;;;;;1814940;78;21146;-85
2022/10/16 12:47:51;;;;;;;23.40;15.23;;;24.90;94.10;;;;;;1819353;78;21130;-85
2022/10/16 12:50:25;;;;;;;21.20;15.32;;;24.90;94.30;;;;;;1822114;77;21141;-84
2022/10/16 12:52:55;;;;;;;22.17;15.55;;;24.80;94.30;;;;;;1810739;78;21198;-85